createdAt,value
2018-08-13T00:01:03.621Z,56.00
2018-08-13T00:03:32.291Z,56.00
2018-08-13T00:06:01.127Z,56.10
2018-08-13T00:08:29.691Z,56.10
2018-08-13T00:10:58.275Z,56.10
2018-08-13T00:13:26.804Z,56.10
2018-08-13T00:15:55.439Z,56.10
2018-08-13T00:18:24.179Z,56.10
2018-08-13T00:20:53.210Z,56.10
2018-08-13T00:23:22.234Z,56.10
2018-08-13T00:25:51.146Z,56.10
2018-08-13T00:28:20.228Z,56.70
2018-08-13T00:30:49.535Z,56.10
2018-08-13T00:33:18.781Z,56.10
2018-08-13T00:35:48.151Z,56.10
2018-08-13T00:38:17.182Z,56.20
2018-08-13T00:40:46.373Z,56.20
2018-08-13T00:43:15.595Z,56.20
2018-08-13T00:45:44.843Z,56.20
2018-08-13T00:48:13.946Z,56.10
2018-08-13T00:50:43.203Z,56.10
2018-08-13T00:53:12.256Z,56.10
2018-08-13T00:55:41.337Z,56.10
2018-08-13T00:58:10.427Z,56.10
2018-08-13T01:00:39.544Z,56.20
2018-08-13T01:03:08.850Z,56.10
2018-08-13T01:05:37.921Z,56.20
2018-08-13T01:08:07.162Z,56.20
2018-08-13T01:10:36.369Z,56.20
2018-08-13T01:13:05.496Z,56.10
2018-08-13T01:15:34.559Z,56.00
2018-08-13T01:18:03.756Z,56.00
2018-08-13T01:20:32.687Z,55.90
2018-08-13T01:23:01.758Z,55.90
2018-08-13T01:25:30.859Z,55.90
2018-08-13T01:27:59.956Z,55.90
2018-08-13T01:30:29.049Z,55.90
2018-08-13T01:32:58.164Z,55.90
2018-08-13T01:35:27.197Z,55.90
2018-08-13T01:37:56.343Z,55.90
2018-08-13T01:40:25.180Z,55.90
2018-08-13T01:42:54.035Z,55.80
2018-08-13T01:45:23.211Z,55.90
2018-08-13T01:47:52.045Z,55.90
2018-08-13T01:50:20.981Z,55.90
2018-08-13T01:52:49.687Z,55.80
2018-08-13T01:55:18.549Z,55.70
2018-08-13T01:57:47.132Z,55.60
2018-08-13T02:00:16.712Z,55.50
2018-08-13T02:02:45.265Z,55.80
2018-08-13T02:05:13.758Z,55.20
2018-08-13T02:07:42.457Z,55.20
2018-08-13T02:10:12.170Z,55.20
2018-08-13T02:12:40.992Z,55.10
2018-08-13T02:15:09.725Z,54.80
2018-08-13T02:17:38.322Z,54.90
2018-08-13T02:20:08.043Z,54.80
2018-08-13T02:22:36.738Z,54.80
2018-08-13T02:25:06.211Z,54.80
2018-08-13T02:27:34.694Z,54.70
2018-08-13T02:30:03.304Z,54.80
2018-08-13T02:32:31.851Z,54.80
2018-08-13T02:35:00.407Z,54.80
2018-08-13T02:37:28.966Z,55.00
2018-08-13T02:39:57.467Z,55.20
2018-08-13T02:42:25.963Z,55.40
2018-08-13T02:44:54.497Z,55.50
2018-08-13T02:47:23.045Z,55.60
2018-08-13T02:49:51.599Z,55.70
2018-08-13T02:52:20.243Z,55.80
2018-08-13T02:54:48.765Z,55.90
2018-08-13T02:57:17.341Z,55.80
2018-08-13T02:59:45.836Z,55.80
2018-08-13T03:02:14.368Z,56.30
2018-08-13T03:04:42.927Z,55.80
2018-08-13T03:07:11.427Z,55.80
2018-08-13T03:09:40.009Z,56.00
2018-08-13T03:12:08.579Z,56.00
2018-08-13T03:14:37.171Z,56.00
2018-08-13T03:17:05.730Z,56.00
2018-08-13T03:19:34.231Z,56.00
2018-08-13T03:22:02.958Z,56.00
2018-08-13T03:24:31.506Z,56.00
2018-08-13T03:27:00.034Z,56.10
2018-08-13T03:29:28.590Z,56.20
2018-08-13T03:31:57.170Z,56.20
2018-08-13T03:34:25.916Z,56.20
2018-08-13T03:36:54.446Z,56.30
2018-08-13T03:39:23.039Z,56.40
2018-08-13T03:41:51.544Z,56.50
2018-08-13T03:44:20.590Z,56.90
2018-08-13T03:46:49.100Z,56.50
2018-08-13T03:49:17.606Z,56.50
2018-08-13T03:51:46.186Z,56.60
2018-08-13T03:54:14.793Z,56.60
2018-08-13T03:56:43.333Z,56.70
2018-08-13T03:59:11.827Z,56.70
2018-08-13T04:01:40.402Z,56.80
2018-08-13T04:04:08.967Z,56.90
2018-08-13T04:06:37.472Z,56.80
2018-08-13T04:09:08.419Z,56.80
2018-08-13T04:11:37.161Z,56.90
2018-08-13T04:14:07.017Z,56.90
2018-08-13T04:16:35.510Z,57.00
2018-08-13T04:19:04.079Z,57.00
2018-08-13T04:21:32.578Z,57.10
2018-08-13T04:24:01.082Z,57.10
2018-08-13T04:26:29.617Z,57.10
2018-08-13T04:28:58.119Z,57.10
2018-08-13T04:31:26.609Z,57.20
2018-08-13T04:33:55.137Z,57.20
2018-08-13T04:36:23.629Z,57.20
2018-08-13T04:38:52.170Z,57.30
2018-08-13T04:41:20.764Z,57.40
2018-08-13T04:43:49.382Z,57.30
2018-08-13T04:46:17.905Z,57.30
2018-08-13T04:48:46.416Z,57.30
2018-08-13T04:51:14.969Z,57.30
2018-08-13T04:53:43.469Z,57.30
2018-08-13T04:56:12.022Z,57.40
2018-08-13T04:58:40.581Z,57.40
2018-08-13T05:01:09.206Z,57.30
2018-08-13T05:03:37.748Z,57.30
2018-08-13T05:06:06.311Z,57.30
2018-08-13T05:08:34.818Z,57.30
2018-08-13T05:11:03.303Z,57.30
2018-08-13T05:13:31.890Z,57.30
2018-08-13T05:16:00.451Z,57.40
2018-08-13T05:18:28.942Z,57.30
2018-08-13T05:20:57.418Z,57.40
2018-08-13T05:23:25.892Z,57.20
2018-08-13T05:25:54.339Z,57.30
2018-08-13T05:28:22.819Z,57.40
2018-08-13T05:30:51.367Z,57.40
2018-08-13T05:33:19.872Z,57.40
2018-08-13T05:35:48.474Z,57.40
2018-08-13T05:38:17.005Z,57.40
2018-08-13T05:40:45.646Z,57.40
2018-08-13T05:43:14.237Z,57.30
2018-08-13T05:45:42.743Z,57.30
2018-08-13T05:48:11.280Z,57.30
2018-08-13T05:50:39.882Z,57.40
2018-08-13T05:53:08.386Z,57.40
2018-08-13T05:55:36.926Z,57.40
2018-08-13T05:58:05.533Z,57.30
2018-08-13T06:00:34.168Z,57.20
2018-08-13T06:03:02.733Z,57.30
2018-08-13T06:05:31.238Z,57.20
2018-08-13T06:07:59.805Z,57.10
2018-08-13T06:10:28.231Z,57.00
2018-08-13T06:12:56.786Z,56.90
2018-08-13T06:15:25.269Z,56.80
2018-08-13T06:17:54.662Z,56.70
2018-08-13T06:20:23.520Z,56.70
2018-08-13T06:22:52.159Z,56.60
2018-08-13T06:25:21.166Z,56.50
2018-08-13T06:27:49.702Z,56.40
2018-08-13T06:30:18.345Z,56.30
2018-08-13T06:32:47.360Z,56.30
2018-08-13T06:35:16.556Z,56.30
2018-08-13T06:37:45.170Z,56.20
2018-08-13T06:40:14.087Z,56.10
2018-08-13T06:42:42.739Z,55.90
2018-08-13T06:45:11.879Z,56.00
2018-08-13T06:47:41.078Z,55.90
2018-08-13T06:50:11.919Z,55.80
2018-08-13T06:52:40.561Z,55.80
2018-08-13T06:55:09.661Z,55.60
2018-08-13T06:57:38.382Z,55.60
2018-08-13T07:00:08.585Z,55.60
2018-08-13T07:02:37.176Z,55.60
2018-08-13T07:05:07.248Z,55.60
2018-08-13T07:07:35.960Z,55.50
2018-08-13T07:10:05.297Z,55.50
2018-08-13T07:12:34.106Z,55.60
2018-08-13T07:15:03.251Z,55.60
2018-08-13T07:17:31.946Z,55.60
2018-08-13T07:20:00.789Z,55.60
2018-08-13T07:22:29.432Z,55.50
2018-08-13T07:24:57.988Z,55.50
2018-08-13T07:27:27.551Z,55.40
2018-08-13T07:29:56.064Z,55.40
2018-08-13T07:32:25.477Z,55.40
2018-08-13T07:34:54.078Z,55.20
2018-08-13T07:37:23.289Z,55.10
2018-08-13T07:39:52.148Z,55.00
2018-08-13T07:42:20.769Z,54.90
2018-08-13T07:44:49.803Z,54.90
2018-08-13T07:47:18.363Z,54.90
2018-08-13T07:49:46.908Z,55.40
2018-08-13T07:52:15.868Z,54.60
2018-08-13T07:54:44.584Z,54.50
2018-08-13T07:57:13.124Z,54.50
2018-08-13T07:59:41.653Z,54.50
2018-08-13T08:02:10.203Z,54.60
2018-08-13T08:04:39.263Z,54.50
2018-08-13T08:07:08.817Z,54.60
2018-08-13T08:09:37.346Z,54.40
2018-08-13T08:12:05.937Z,54.40
2018-08-13T08:14:35.399Z,54.40
2018-08-13T08:17:04.035Z,54.10
2018-08-13T08:19:32.901Z,54.10
2018-08-13T08:22:01.452Z,54.10
2018-08-13T08:24:30.127Z,53.90
2018-08-13T08:26:58.591Z,53.90
2018-08-13T08:29:27.471Z,53.80
2018-08-13T08:31:56.071Z,53.70
2018-08-13T08:34:24.744Z,53.60
2018-08-13T08:36:53.607Z,53.60
2018-08-13T08:39:22.347Z,53.50
2018-08-13T08:41:50.868Z,53.30
2018-08-13T08:44:20.023Z,53.30
2018-08-13T08:46:48.662Z,53.20
2018-08-13T08:49:17.200Z,53.10
2018-08-13T08:51:45.745Z,53.00
2018-08-13T08:54:14.331Z,53.00
2018-08-13T08:56:42.982Z,52.80
2018-08-13T08:59:11.549Z,52.90
2018-08-13T09:01:40.118Z,52.70
2018-08-13T09:04:09.591Z,52.80
2018-08-13T09:06:38.556Z,52.10
2018-08-13T09:09:10.967Z,52.00
2018-08-13T09:11:39.668Z,51.60
2018-08-13T09:14:08.770Z,51.30
2018-08-13T09:16:38.451Z,51.10
2018-08-13T09:19:18.360Z,51.00
2018-08-13T09:21:51.033Z,51.00
2018-08-13T09:24:30.686Z,51.00
2018-08-13T09:27:10.397Z,50.70
2018-08-13T09:29:50.089Z,50.60
2018-08-13T09:32:32.681Z,50.30
2018-08-13T09:35:08.295Z,50.10
2018-08-13T09:37:37.206Z,50.10
2018-08-13T09:40:08.410Z,50.10
2018-08-13T09:42:37.142Z,49.90
2018-08-13T09:45:08.323Z,50.00
2018-08-13T09:47:37.631Z,49.90
2018-08-13T09:50:11.760Z,49.80
2018-08-13T09:52:40.278Z,49.70
2018-08-13T09:55:08.833Z,50.20
2018-08-13T09:57:37.379Z,49.30
2018-08-13T10:00:08.128Z,48.80
2018-08-13T10:02:36.659Z,48.80
2018-08-13T10:05:05.178Z,49.40
2018-08-13T10:07:33.683Z,48.80
2018-08-13T10:10:02.183Z,48.80
2018-08-13T10:12:30.766Z,48.70
2018-08-13T10:14:59.278Z,48.70
2018-08-13T10:17:27.847Z,48.70
2018-08-13T10:19:56.352Z,48.60
2018-08-13T10:22:24.849Z,48.60
2018-08-13T10:24:53.428Z,48.70
2018-08-13T10:27:21.908Z,48.70
2018-08-13T10:29:50.548Z,48.60
2018-08-13T10:32:19.067Z,48.80
2018-08-13T10:34:47.622Z,48.80
2018-08-13T10:37:16.178Z,48.80
2018-08-13T10:39:44.662Z,48.60
2018-08-13T10:42:13.263Z,48.40
2018-08-13T10:44:41.767Z,48.10
2018-08-13T10:47:10.311Z,47.90
2018-08-13T10:49:38.857Z,47.70
2018-08-13T10:52:07.539Z,47.20
2018-08-13T10:54:36.037Z,47.10
2018-08-13T10:57:08.752Z,47.00
2018-08-13T10:59:37.398Z,46.70
2018-08-13T11:02:06.162Z,46.80
2018-08-13T11:04:34.992Z,46.70
2018-08-13T11:07:03.759Z,46.60
2018-08-13T11:09:32.529Z,46.60
2018-08-13T11:12:01.218Z,46.50
2018-08-13T11:14:29.873Z,46.40
2018-08-13T11:16:58.531Z,46.40
2018-08-13T11:19:27.189Z,46.20
2018-08-13T11:21:55.896Z,46.20
2018-08-13T11:24:24.936Z,46.00
2018-08-13T11:26:54.665Z,46.00
2018-08-13T11:29:24.109Z,46.00
2018-08-13T11:31:53.002Z,45.80
2018-08-13T11:34:21.657Z,46.10
2018-08-13T11:36:50.244Z,45.80
2018-08-13T11:39:18.887Z,45.80
2018-08-13T11:41:47.658Z,45.80
2018-08-13T11:44:16.328Z,45.80
2018-08-13T11:46:45.049Z,45.60
2018-08-13T11:49:14.205Z,45.60
2018-08-13T11:51:43.515Z,45.60
2018-08-13T11:54:12.749Z,45.40
2018-08-13T11:56:43.121Z,45.30
2018-08-13T11:59:11.835Z,45.30
2018-08-13T12:01:40.524Z,45.30
2018-08-13T12:04:09.426Z,45.30
2018-08-13T12:06:38.057Z,45.20
2018-08-13T12:09:10.340Z,45.20
2018-08-13T12:11:38.989Z,45.20
2018-08-13T12:14:07.713Z,45.20
2018-08-13T12:16:37.774Z,45.20
2018-08-13T12:19:06.660Z,45.30
2018-08-13T12:21:35.308Z,45.30
2018-08-13T12:24:04.022Z,45.40
2018-08-13T12:26:32.741Z,45.40
2018-08-13T12:29:01.475Z,45.30
2018-08-13T12:31:30.185Z,45.30
2018-08-13T12:33:59.150Z,45.40
2018-08-13T12:36:27.826Z,45.40
2018-08-13T12:38:58.007Z,45.50
2018-08-13T12:41:26.714Z,45.40
2018-08-13T12:43:55.334Z,45.50
2018-08-13T12:46:24.067Z,45.60
2018-08-13T12:48:52.797Z,45.60
2018-08-13T12:51:21.564Z,45.60
2018-08-13T12:53:50.197Z,45.70
2018-08-13T12:56:18.881Z,45.70
2018-08-13T12:58:47.563Z,45.80
2018-08-13T13:01:16.393Z,45.90
2018-08-13T13:03:45.072Z,45.90
2018-08-13T13:06:18.185Z,45.90
2018-08-13T13:08:46.938Z,46.00
2018-08-13T13:11:15.680Z,46.10
2018-08-13T13:13:44.275Z,46.10
2018-08-13T13:16:12.982Z,46.00
2018-08-13T13:18:41.548Z,46.00
2018-08-13T13:21:10.265Z,46.10
2018-08-13T13:23:38.924Z,46.10
2018-08-13T13:26:07.526Z,46.10
2018-08-13T13:28:36.221Z,46.10
2018-08-13T13:31:04.929Z,46.10
2018-08-13T13:33:33.606Z,46.20
2018-08-13T13:36:02.234Z,46.20
2018-08-13T13:38:30.905Z,46.20
2018-08-13T13:40:59.625Z,46.20
2018-08-13T13:43:28.426Z,46.20
2018-08-13T13:45:57.079Z,46.20
2018-08-13T13:48:25.800Z,46.20
2018-08-13T13:50:54.549Z,46.30
2018-08-13T13:53:23.171Z,46.30
2018-08-13T13:55:52.082Z,46.40
2018-08-13T13:58:20.937Z,46.40
2018-08-13T14:00:49.655Z,46.40
2018-08-13T14:03:18.407Z,46.50
2018-08-13T14:05:47.044Z,46.60
2018-08-13T14:08:15.837Z,46.80
2018-08-13T14:10:44.863Z,46.90
2018-08-13T14:13:14.768Z,47.10
2018-08-13T14:15:45.067Z,47.20
2018-08-13T14:18:13.990Z,47.40
2018-08-13T14:20:42.535Z,47.30
2018-08-13T14:23:11.167Z,47.30
2018-08-13T14:25:39.905Z,47.80
2018-08-13T14:28:08.937Z,48.10
2018-08-13T14:30:37.680Z,48.40
2018-08-13T14:33:07.443Z,48.60
2018-08-13T14:35:36.097Z,48.70
2018-08-13T14:38:05.785Z,48.90
2018-08-13T14:40:34.493Z,49.10
2018-08-13T14:43:03.156Z,49.30
2018-08-13T14:45:31.805Z,49.30
2018-08-13T14:48:00.472Z,49.40
2018-08-13T14:50:29.075Z,49.60
2018-08-13T14:52:57.730Z,49.60
2018-08-13T14:55:26.501Z,49.80
2018-08-13T14:57:55.283Z,50.00
2018-08-13T15:00:26.529Z,50.00
2018-08-13T15:02:56.248Z,50.10
2018-08-13T15:05:25.166Z,50.10
2018-08-13T15:07:53.994Z,50.10
2018-08-13T15:10:24.192Z,50.20
2018-08-13T15:12:53.096Z,50.20
2018-08-13T15:15:22.235Z,50.20
2018-08-13T15:17:50.964Z,50.30
2018-08-13T15:20:26.018Z,50.30
2018-08-13T15:22:55.443Z,50.30
2018-08-13T15:25:25.062Z,50.40
2018-08-13T15:27:54.495Z,50.30
2018-08-13T15:30:24.249Z,50.30
2018-08-13T15:32:53.738Z,50.30
2018-08-13T15:35:22.866Z,50.90
2018-08-13T15:37:52.309Z,50.50
2018-08-13T15:40:21.173Z,50.40
2018-08-13T15:42:50.048Z,50.40
2018-08-13T15:45:21.610Z,50.40
2018-08-13T15:47:51.665Z,50.40
2018-08-13T15:50:21.821Z,50.50
2018-08-13T15:57:19.926Z,51.00
2018-08-13T15:59:48.861Z,50.50
2018-08-13T16:02:17.924Z,50.30
2018-08-13T16:04:47.147Z,50.20
2018-08-13T16:07:15.699Z,50.20
2018-08-13T16:09:47.437Z,50.10
2018-08-13T16:12:16.046Z,50.10
2018-08-13T16:14:45.014Z,50.10
2018-08-13T16:17:15.661Z,50.10
2018-08-13T16:19:44.585Z,50.10
2018-08-13T16:22:13.106Z,50.40
2018-08-13T16:24:41.919Z,50.50
2018-08-13T16:27:10.594Z,50.50
2018-08-13T16:29:39.456Z,50.60
2018-08-13T16:32:08.152Z,50.80
2018-08-13T16:34:36.893Z,50.90
2018-08-13T16:37:05.778Z,51.00
2018-08-13T16:39:34.353Z,51.00
2018-08-13T16:42:02.994Z,51.20
2018-08-13T16:44:31.554Z,51.30
2018-08-13T16:47:02.361Z,51.20
2018-08-13T16:49:33.531Z,51.30
2018-08-13T16:52:05.255Z,51.40
2018-08-13T16:54:35.515Z,51.50
2018-08-13T16:57:04.084Z,51.60
2018-08-13T16:59:32.676Z,51.60
2018-08-13T17:02:01.212Z,51.70
2018-08-13T17:04:29.740Z,51.80
2018-08-13T17:06:58.260Z,51.90
2018-08-13T17:09:26.894Z,52.00
2018-08-13T17:11:55.429Z,52.30
2018-08-13T17:14:24.243Z,52.20
2018-08-13T17:16:52.569Z,52.40
2018-08-13T17:19:21.205Z,52.70
2018-08-13T17:21:49.748Z,52.90
2018-08-13T17:24:18.550Z,53.10
2018-08-13T17:26:47.131Z,53.30
2018-08-13T17:29:15.713Z,53.70
2018-08-13T17:31:44.359Z,54.00
2018-08-13T17:34:13.101Z,54.30
2018-08-13T17:36:41.673Z,54.70
2018-08-13T17:39:12.881Z,54.70
2018-08-13T17:41:41.964Z,55.00
2018-08-13T17:44:10.719Z,55.20
2018-08-13T17:46:39.775Z,55.50
2018-08-13T17:49:08.956Z,55.80
2018-08-13T17:51:37.980Z,56.20
2018-08-13T17:54:06.558Z,56.20
2018-08-13T17:56:35.169Z,56.50
2018-08-13T17:59:03.743Z,56.60
2018-08-13T18:01:32.423Z,56.80
2018-08-13T18:04:00.927Z,57.00
2018-08-13T18:06:29.532Z,57.20
2018-08-13T18:08:58.150Z,57.30
2018-08-13T18:11:26.724Z,57.50
2018-08-13T18:13:55.312Z,57.50
2018-08-13T18:16:23.819Z,57.70
2018-08-13T18:18:52.353Z,57.90
2018-08-13T18:21:21.004Z,58.00
2018-08-13T18:23:49.475Z,58.00
2018-08-13T18:26:17.981Z,58.10
2018-08-13T18:28:46.518Z,58.30
2018-08-13T18:31:15.057Z,58.40
2018-08-13T18:33:43.626Z,58.50
2018-08-13T18:36:12.062Z,58.60
2018-08-13T18:38:40.580Z,58.70
2018-08-13T18:41:09.133Z,58.70
2018-08-13T18:43:37.657Z,58.90
2018-08-13T18:46:06.161Z,58.90
2018-08-13T18:48:34.689Z,59.00
2018-08-13T18:51:03.229Z,59.00
2018-08-13T18:53:31.801Z,59.10
2018-08-13T18:56:00.400Z,59.20
2018-08-13T18:58:28.949Z,59.20
2018-08-13T19:00:57.503Z,59.40
2018-08-13T19:03:26.014Z,59.50
2018-08-13T19:05:54.517Z,59.50
2018-08-13T19:08:23.108Z,59.70
2018-08-13T19:10:51.630Z,59.70
2018-08-13T19:13:20.206Z,59.80
2018-08-13T19:15:48.697Z,60.00
2018-08-13T19:18:17.442Z,60.10
2018-08-13T19:20:45.995Z,60.10
2018-08-13T19:23:14.623Z,60.20
2018-08-13T19:25:43.115Z,60.20
2018-08-13T19:28:11.605Z,60.40
2018-08-13T19:30:40.112Z,60.40
2018-08-13T19:33:08.769Z,60.50
2018-08-13T19:35:37.306Z,60.60
2018-08-13T19:38:05.871Z,60.70
2018-08-13T19:40:34.378Z,60.90
2018-08-13T19:43:02.996Z,61.00
2018-08-13T19:45:31.512Z,61.00
2018-08-13T19:48:00.429Z,60.90
2018-08-13T19:50:29.067Z,60.90
2018-08-13T19:52:57.587Z,60.90
2018-08-13T19:55:26.484Z,60.90
2018-08-13T19:57:54.961Z,60.80
2018-08-13T20:00:26.663Z,60.90
2018-08-13T20:02:55.575Z,61.20
2018-08-13T20:05:25.328Z,61.20
2018-08-13T20:07:54.750Z,61.20
2018-08-13T20:10:23.331Z,61.10
2018-08-13T20:12:51.892Z,61.40
2018-08-13T20:15:20.453Z,61.80
2018-08-13T20:17:48.988Z,62.00
2018-08-13T20:20:19.547Z,62.10
2018-08-13T20:22:48.617Z,62.00
2018-08-13T20:25:18.197Z,62.10
2018-08-13T20:27:47.164Z,62.10
2018-08-13T20:30:17.407Z,62.30
2018-08-13T20:32:47.359Z,62.20
2018-08-13T20:35:15.833Z,62.30
2018-08-13T20:37:44.343Z,62.30
2018-08-13T20:40:14.777Z,62.30
2018-08-13T20:42:43.949Z,62.50
2018-08-13T20:45:14.743Z,62.60
2018-08-13T20:47:43.952Z,62.80
2018-08-13T20:50:15.208Z,62.80
2018-08-13T20:52:44.211Z,62.80
2018-08-13T20:55:16.040Z,62.80
2018-08-13T20:57:45.293Z,62.90
2018-08-13T21:00:14.932Z,62.80
2018-08-13T21:02:44.886Z,62.90
2018-08-13T21:05:13.474Z,63.00
2018-08-13T21:07:42.166Z,62.90
2018-08-13T21:10:13.239Z,63.00
2018-08-13T21:12:41.725Z,63.00
2018-08-13T21:15:12.351Z,63.00
2018-08-13T21:17:41.046Z,63.00
2018-08-13T21:20:11.378Z,63.00
2018-08-13T21:22:39.858Z,63.00
2018-08-13T21:25:11.880Z,63.10
2018-08-13T21:27:40.806Z,63.10
2018-08-13T21:30:09.494Z,63.20
2018-08-13T21:32:38.074Z,63.40
2018-08-13T21:35:06.884Z,63.50
2018-08-13T21:37:35.750Z,63.70
2018-08-13T21:40:05.192Z,63.70
2018-08-13T21:42:33.794Z,63.90
2018-08-13T21:45:02.411Z,64.70
2018-08-13T21:47:30.929Z,63.90
2018-08-13T21:49:59.470Z,64.00
2018-08-13T21:52:27.991Z,63.90
2018-08-13T21:54:56.512Z,64.90
2018-08-13T21:57:25.517Z,64.10
2018-08-13T21:59:55.270Z,64.20
2018-08-13T22:02:23.778Z,64.20
2018-08-13T22:04:52.242Z,64.40
2018-08-13T22:07:20.986Z,64.40
2018-08-13T22:09:49.597Z,64.50
2018-08-13T22:12:19.854Z,64.60
2018-08-13T22:14:48.811Z,64.60
2018-08-13T22:17:17.521Z,64.60
2018-08-13T22:19:46.094Z,64.50
2018-08-13T22:22:15.342Z,64.50
2018-08-13T22:24:55.305Z,64.50
2018-08-13T22:27:24.014Z,64.60
2018-08-13T22:29:52.844Z,64.70
2018-08-13T22:32:21.693Z,65.40
2018-08-13T22:34:51.017Z,64.70
2018-08-13T22:37:19.729Z,64.70
2018-08-13T22:39:48.439Z,64.60
2018-08-13T22:42:17.186Z,64.80
2018-08-13T22:44:45.875Z,64.90
2018-08-13T22:47:14.531Z,64.80
2018-08-13T22:49:43.619Z,64.80
2018-08-13T22:52:12.492Z,64.90
2018-08-13T22:54:41.854Z,64.90
2018-08-13T22:57:10.781Z,64.90
2018-08-13T22:59:39.766Z,64.90
2018-08-13T23:02:08.485Z,65.10
2018-08-13T23:04:37.404Z,65.10
2018-08-13T23:07:06.539Z,65.10
2018-08-13T23:09:35.112Z,65.00
2018-08-13T23:12:05.038Z,65.00
2018-08-13T23:14:33.652Z,65.10
2018-08-13T23:17:02.280Z,65.10
2018-08-13T23:19:30.780Z,65.30
2018-08-13T23:21:59.646Z,65.30
2018-08-13T23:24:28.303Z,65.40
2018-08-13T23:26:56.958Z,65.60
2018-08-13T23:29:25.795Z,65.60
2018-08-13T23:31:54.314Z,65.50
2018-08-13T23:34:22.929Z,65.40
2018-08-13T23:36:51.523Z,65.50
2018-08-13T23:39:20.044Z,65.50
2018-08-13T23:41:48.771Z,65.50
2018-08-13T23:44:17.426Z,65.40
2018-08-13T23:46:45.928Z,65.40
2018-08-13T23:49:14.627Z,65.50
2018-08-13T23:51:43.451Z,65.40
2018-08-13T23:54:11.899Z,65.20
2018-08-13T23:56:40.417Z,65.20
2018-08-13T23:59:08.911Z,65.20
